Weather history for 0321

Weather History For Prescott AZ

This page updates 5 minutes after midnight. GMT -7

Station: KPRC0 Rows: 26

Return to today's weather
Year Date Temp (°F) Tmin (°F) Tmax (°F) RH% Prcp Snow Wind Gust Pres Sun Cloud
2000 2000-03-21 33.3 28.0 39.9 78 16.0 29.80 6
2001 2001-03-21 55.2 37.0 72.0 42 9.5 30.00 0
2002 2002-03-21 53.8 32.0 75.2 23 11.7 30.07 0
2003 2003-03-21 46.0 53 14.8 29.96 0
2004 2004-03-21 63.9 30 12.8 30.02 0
2005 2005-03-21 44.4 32.0 55.0 56 0.0 10.8 29.97 1
2006 2006-03-21 34.9 23.0 42.1 78 14.0 29.85 7
2007 2007-03-21 54.5 46.0 60.1 30 0.0 17.1 29.74 2
2008 2008-03-21 50.4 30.0 68.0 30 0.0 8.6 30.10 0
2009 2009-03-21 56.8 43.0 69.1 30 0.0 15.0 29.86 0
2010 2010-03-21 48.2 28.0 69.1 31 0.0 6.9 30.15 0
2011 2011-03-21 40.8 35.1 53.1 66 21.7 29.75 8
2012 2012-03-21 44.1 28.9 62.1 59 0.0 9.2 30.04 0
2013 2013-03-21 58.8 45.0 71.1 27 0.0 11.1 29.71 0
2014 2014-03-21 50.4 35.1 66.0 22 0.0 11.2 29.86 0
2015 2015-03-21 55.4 37.9 71.1 42 0.0 9.5 30.03 0
2016 2016-03-21 59.9 42.1 73.0 22 0.0 18.8 29.95 0
2017 2017-03-21 61.5 46.9 73.0 34 0.0 14.6 29.92 0
2018 2018-03-21 55.2 42.1 66.9 28 0.0 13.0 29.95 1
2019 2019-03-21 44.1 35.1 52.0 63 17.0 29.93
2020 2020-03-21 43.9 33.1 55.9 61 0.0 9.2 30.04 1
2021 2021-03-21 46.9 33.1 59.0 34 0.0 13.4 29.85 0
2022 2022-03-21 44.2 30.9 60.1 33 0.0 24.9 29.90 0
2023 2023-03-21 44.2 39.9 46.9 87 18.7 29.74 8
2024 2024-03-21 51.3 37.0 68.0 51 0.0 11.0 29.99 0
2025 2025-03-21 50.7 30.9 68.0 28 0.0 11.4 29.98 0
Average Low 35.5
Average High 62.4

Daily High / Low by Year (03/21)

Barometric Pressure by Year (03/21)

Weather data provided by Meteostat